createdAt,value
2022-08-05T00:02:50.846Z,15.90
2022-08-05T00:06:35.928Z,15.90
2022-08-05T00:10:18.165Z,15.90
2022-08-05T00:14:00.128Z,15.90
2022-08-05T00:17:41.939Z,15.90
2022-08-05T00:21:23.848Z,15.90
2022-08-05T00:25:12.873Z,15.80
2022-08-05T00:28:54.817Z,15.80
2022-08-05T00:32:36.674Z,15.70
2022-08-05T00:37:10.880Z,15.60
2022-08-05T00:40:26.904Z,15.60
2022-08-05T00:44:10.505Z,15.40
2022-08-05T00:47:56.801Z,15.30
2022-08-05T00:51:51.539Z,15.20
2022-08-05T00:55:42.751Z,15.10
2022-08-05T00:59:25.632Z,15.10
2022-08-05T01:03:22.406Z,15.10
2022-08-05T01:07:05.409Z,15.10
2022-08-05T01:10:56.934Z,15.00
2022-08-05T01:14:49.140Z,15.00
2022-08-05T01:18:37.594Z,15.00
2022-08-05T01:22:37.215Z,15.00
2022-08-05T01:26:34.511Z,15.00
2022-08-05T01:30:18.649Z,14.90
2022-08-05T01:34:13.730Z,14.90
2022-08-05T01:37:57.912Z,14.80
2022-08-05T01:41:44.783Z,14.70
2022-08-05T01:45:34.763Z,14.60
2022-08-05T01:49:24.975Z,14.50
2022-08-05T01:53:15.159Z,14.30
2022-08-05T01:58:09.846Z,14.10
2022-08-05T02:01:28.713Z,13.90
2022-08-05T02:05:23.364Z,13.70
2022-08-05T02:09:06.914Z,13.60
2022-08-05T02:13:01.834Z,13.50
2022-08-05T02:16:55.239Z,13.40
2022-08-05T02:20:49.793Z,13.30
2022-08-05T02:24:37.579Z,13.20
2022-08-05T02:28:32.167Z,13.20
2022-08-05T02:32:24.237Z,13.10
2022-08-05T02:36:15.600Z,13.10
2022-08-05T02:39:57.862Z,13.10
2022-08-05T02:44:02.650Z,13.00
2022-08-05T02:48:07.567Z,13.00
2022-08-05T02:52:03.080Z,12.90
2022-08-05T02:55:54.226Z,12.80
2022-08-05T02:59:50.717Z,12.70
2022-08-05T03:04:03.412Z,12.70
2022-08-05T03:08:06.717Z,12.60
2022-08-05T03:11:57.623Z,12.50
2022-08-05T03:15:43.517Z,12.50
2022-08-05T03:19:33.953Z,12.40
2022-08-05T03:23:17.985Z,12.40
2022-08-05T03:27:00.386Z,12.30
2022-08-05T03:30:43.254Z,12.20
2022-08-05T03:34:27.181Z,12.10
2022-08-05T03:38:12.263Z,12.00
2022-08-05T03:41:56.880Z,11.90
2022-08-05T03:45:57.468Z,11.80
2022-08-05T03:49:51.585Z,11.70
2022-08-05T03:55:54.145Z,11.50
2022-08-05T03:57:56.606Z,11.40
2022-08-05T04:01:42.522Z,11.30
2022-08-05T04:05:33.308Z,11.20
2022-08-05T04:09:20.203Z,11.20
2022-08-05T04:13:08.214Z,11.10
2022-08-05T04:16:50.426Z,11.00
2022-08-05T04:20:34.987Z,10.90
2022-08-05T04:24:19.645Z,10.80
2022-08-05T04:28:12.717Z,10.70
2022-08-05T04:31:56.911Z,10.70
2022-08-05T04:36:09.511Z,10.70
2022-08-05T04:39:40.679Z,10.70
2022-08-05T04:43:22.598Z,10.70
2022-08-05T04:47:07.910Z,10.70
2022-08-05T04:51:02.000Z,10.80
2022-08-05T04:54:46.071Z,10.80
2022-08-05T04:58:27.865Z,10.80
2022-08-05T05:02:37.567Z,10.80
2022-08-05T05:06:36.099Z,10.80
2022-08-05T05:10:14.251Z,10.80
2022-08-05T05:13:56.037Z,10.80
2022-08-05T05:17:56.792Z,10.90
2022-08-05T05:21:39.564Z,10.90
2022-08-05T05:25:21.394Z,11.00
2022-08-05T05:29:15.116Z,11.00
2022-08-05T05:33:00.815Z,11.00
2022-08-05T05:36:43.201Z,11.10
2022-08-05T05:40:29.385Z,11.10
2022-08-05T05:44:37.771Z,11.20
2022-08-05T05:48:16.060Z,11.20
2022-08-05T05:51:58.053Z,11.30
2022-08-05T05:55:51.507Z,11.30
2022-08-05T05:59:41.669Z,11.40
2022-08-05T06:03:54.172Z,11.50
2022-08-05T06:07:41.766Z,11.50
2022-08-05T06:11:24.325Z,11.60
2022-08-05T06:15:07.992Z,11.60
2022-08-05T06:18:50.020Z,11.70
2022-08-05T06:22:35.785Z,11.80
2022-08-05T06:26:21.705Z,11.80
2022-08-05T06:30:17.729Z,11.90
2022-08-05T06:34:03.019Z,12.00
2022-08-05T06:37:57.616Z,12.10
2022-08-05T06:41:40.755Z,12.20
2022-08-05T06:45:44.466Z,12.30
2022-08-05T06:50:01.582Z,12.40
2022-08-05T06:53:27.834Z,12.60
2022-08-05T06:57:57.716Z,12.60
2022-08-05T07:01:13.904Z,12.70
2022-08-05T07:05:02.694Z,12.80
2022-08-05T07:08:47.673Z,12.90
2022-08-05T07:12:52.242Z,13.00
2022-08-05T07:17:57.135Z,13.10
2022-08-05T07:20:51.039Z,13.20
2022-08-05T07:24:34.479Z,13.40
2022-08-05T07:28:26.290Z,13.50
2022-08-05T07:32:08.191Z,13.60
2022-08-05T07:36:03.520Z,13.70
2022-08-05T07:40:04.770Z,13.80
2022-08-05T07:43:56.692Z,13.90
2022-08-05T07:47:42.146Z,14.00
2022-08-05T07:51:41.110Z,14.10
2022-08-05T07:56:05.795Z,14.20
2022-08-05T07:59:39.003Z,14.40
2022-08-05T08:03:22.564Z,14.50
2022-08-05T08:07:05.601Z,14.60
2022-08-05T08:10:49.273Z,14.70
2022-08-05T08:14:31.053Z,14.90
2022-08-05T08:18:14.394Z,15.00
2022-08-05T08:21:56.507Z,15.20
2022-08-05T08:26:00.197Z,15.70
2022-08-05T08:30:04.118Z,16.50
2022-08-05T08:33:42.993Z,17.60
2022-08-05T08:37:27.825Z,18.70
2022-08-05T08:41:13.964Z,19.90
2022-08-05T08:45:22.886Z,20.90
2022-08-05T08:49:17.413Z,21.70
2022-08-05T08:53:08.058Z,22.60
2022-08-05T08:56:56.614Z,23.40
2022-08-05T09:00:41.201Z,24.10
2022-08-05T09:04:23.855Z,24.60
2022-08-05T09:08:12.578Z,25.30
2022-08-05T09:11:58.564Z,25.80
2022-08-05T09:15:47.879Z,26.20
2022-08-05T09:19:36.785Z,26.50
2022-08-05T09:23:37.513Z,27.00
2022-08-05T09:28:04.744Z,27.60
2022-08-05T09:32:41.484Z,28.20
2022-08-05T09:36:11.611Z,28.80
2022-08-05T09:39:57.967Z,29.40
2022-08-05T09:43:41.742Z,30.00
2022-08-05T09:47:29.686Z,30.30
2022-08-05T09:51:34.138Z,30.70
2022-08-05T09:55:58.237Z,31.20
2022-08-05T09:59:24.369Z,31.50
2022-08-05T10:03:11.085Z,31.70
2022-08-05T10:06:59.556Z,32.00
2022-08-05T10:10:44.435Z,32.20
2022-08-05T10:14:32.240Z,32.40
2022-08-05T10:18:25.950Z,32.60
2022-08-05T10:22:15.640Z,32.60
2022-08-05T10:26:14.313Z,32.50
2022-08-05T10:32:48.963Z,32.90
2022-08-05T10:34:17.002Z,33.50
2022-08-05T10:38:02.751Z,34.00
2022-08-05T10:42:01.327Z,34.30
2022-08-05T10:45:55.101Z,34.30
2022-08-05T10:50:31.748Z,34.70
2022-08-05T10:54:23.043Z,34.80
2022-08-05T10:58:11.675Z,35.30
2022-08-05T11:02:38.109Z,35.40
2022-08-05T11:06:17.903Z,35.60
2022-08-05T11:10:04.093Z,36.10
2022-08-05T11:13:58.134Z,35.70
2022-08-05T11:17:59.783Z,35.40
2022-08-05T11:21:49.485Z,35.50
2022-08-05T11:26:05.736Z,35.20
2022-08-05T11:29:58.886Z,34.40
2022-08-05T11:33:58.568Z,34.20
2022-08-05T11:38:28.888Z,34.40
2022-08-05T11:42:01.980Z,33.80
2022-08-05T11:46:23.374Z,32.50
2022-08-05T11:50:00.538Z,31.40
2022-08-05T11:53:44.124Z,31.80
2022-08-05T11:57:39.244Z,32.90
2022-08-05T12:01:22.485Z,33.50
2022-08-05T12:05:08.088Z,34.20
2022-08-05T12:09:00.044Z,34.80
2022-08-05T12:12:46.621Z,34.70
2022-08-05T12:16:45.520Z,34.10
2022-08-05T12:20:33.597Z,34.70
2022-08-05T12:24:20.882Z,35.70
2022-08-05T12:28:06.417Z,36.60
2022-08-05T12:31:53.619Z,36.30
2022-08-05T12:35:37.123Z,36.20
2022-08-05T12:39:34.562Z,36.60
2022-08-05T12:43:21.289Z,36.90
2022-08-05T12:47:06.134Z,35.80
2022-08-05T12:52:10.924Z,35.40
2022-08-05T12:55:23.808Z,35.90
2022-08-05T12:59:46.647Z,36.30
2022-08-05T13:03:38.937Z,36.40
2022-08-05T13:07:56.033Z,35.80
2022-08-05T13:12:01.696Z,35.70
2022-08-05T13:15:41.259Z,36.50
2022-08-05T13:19:50.975Z,37.60
2022-08-05T13:23:32.825Z,38.70
2022-08-05T13:27:38.095Z,39.50
2022-08-05T13:32:03.186Z,40.00
2022-08-05T13:35:31.294Z,40.60
2022-08-05T13:40:15.788Z,41.00
2022-08-05T13:43:44.189Z,41.20
2022-08-05T13:47:35.429Z,41.70
2022-08-05T13:51:40.217Z,42.40
2022-08-05T13:55:41.033Z,42.80
2022-08-05T13:59:27.496Z,42.80
2022-08-05T14:03:12.692Z,42.50
2022-08-05T14:07:12.076Z,42.60
2022-08-05T14:10:59.789Z,42.70
2022-08-05T14:14:51.355Z,42.70
2022-08-05T14:18:33.301Z,43.20
2022-08-05T14:22:15.166Z,43.10
2022-08-05T14:25:58.105Z,41.80
2022-08-05T14:29:41.235Z,39.80
2022-08-05T14:33:24.146Z,38.70
2022-08-05T14:37:06.117Z,38.50
2022-08-05T14:40:48.461Z,37.90
2022-08-05T14:44:32.469Z,36.50
2022-08-05T14:48:32.624Z,35.10
2022-08-05T14:52:30.589Z,33.90
2022-08-05T14:56:22.627Z,33.80
2022-08-05T15:00:05.610Z,34.70
2022-08-05T15:03:48.758Z,35.70
2022-08-05T15:08:05.698Z,36.70
2022-08-05T15:11:52.724Z,37.50
2022-08-05T15:15:55.151Z,38.20
2022-08-05T15:19:37.309Z,38.10
2022-08-05T15:23:20.901Z,38.20
2022-08-05T15:27:03.462Z,37.70
2022-08-05T15:30:46.467Z,36.70
2022-08-05T15:34:32.210Z,36.60
2022-08-05T15:38:34.062Z,37.40
2022-08-05T15:42:55.634Z,38.30
2022-08-05T15:46:24.090Z,39.20
2022-08-05T15:50:08.072Z,39.50
2022-08-05T15:53:51.938Z,39.70
2022-08-05T15:57:34.784Z,39.80
2022-08-05T16:01:18.004Z,40.20
2022-08-05T16:05:00.152Z,40.50
2022-08-05T16:08:42.535Z,40.60
2022-08-05T16:12:24.544Z,40.20
2022-08-05T16:16:06.781Z,39.60
2022-08-05T16:20:04.525Z,38.80
2022-08-05T16:23:53.656Z,38.60
2022-08-05T16:28:00.075Z,38.40
2022-08-05T16:31:56.968Z,38.00
2022-08-05T16:35:43.117Z,37.70
2022-08-05T16:40:06.443Z,37.60
2022-08-05T16:43:31.790Z,37.40
2022-08-05T16:47:28.562Z,36.10
2022-08-05T16:51:16.172Z,34.60
2022-08-05T16:54:57.933Z,33.40
2022-08-05T16:58:40.966Z,33.20
2022-08-05T17:02:23.454Z,33.00
2022-08-05T17:06:05.662Z,32.30
2022-08-05T17:09:58.366Z,31.50
2022-08-05T17:13:42.264Z,30.50
2022-08-05T17:17:24.160Z,29.50
2022-08-05T17:21:24.053Z,29.10
2022-08-05T17:25:22.130Z,29.40
2022-08-05T17:29:10.023Z,29.70
2022-08-05T17:32:52.644Z,29.80
2022-08-05T17:36:38.717Z,29.90
2022-08-05T17:40:23.226Z,30.00
2022-08-05T17:44:05.053Z,29.60
2022-08-05T17:47:51.346Z,29.00
2022-08-05T17:51:40.486Z,28.30
2022-08-05T17:55:27.242Z,27.50
2022-08-05T17:59:16.185Z,26.70
2022-08-05T18:03:04.465Z,25.90
2022-08-05T18:06:50.010Z,25.40
2022-08-05T18:10:32.266Z,25.10
2022-08-05T18:14:20.506Z,25.00
2022-08-05T18:18:05.540Z,24.90
2022-08-05T18:22:09.777Z,24.60
2022-08-05T18:25:57.849Z,24.30
2022-08-05T18:29:41.626Z,24.00
2022-08-05T18:33:24.211Z,24.00
2022-08-05T18:37:12.646Z,24.00
2022-08-05T18:41:55.145Z,24.00
2022-08-05T18:45:00.426Z,23.90
2022-08-05T18:48:43.352Z,23.70
2022-08-05T18:52:41.384Z,23.50
2022-08-05T18:56:33.991Z,23.20
2022-08-05T19:00:20.244Z,22.90
2022-08-05T19:04:02.507Z,22.60
2022-08-05T19:07:49.831Z,22.20
2022-08-05T19:11:59.204Z,21.90
2022-08-05T19:15:57.983Z,21.50
2022-08-05T19:19:35.953Z,21.20
2022-08-05T19:24:06.840Z,20.70
2022-08-05T19:27:30.386Z,20.40
2022-08-05T19:31:18.080Z,20.10
2022-08-05T19:35:06.553Z,19.80
2022-08-05T19:38:48.618Z,19.50
2022-08-05T19:42:35.424Z,19.20
2022-08-05T19:46:30.288Z,19.00
2022-08-05T19:50:12.868Z,18.70
2022-08-05T19:54:04.574Z,18.50
2022-08-05T19:58:14.447Z,18.40
2022-08-05T20:01:49.059Z,18.20
2022-08-05T20:05:50.072Z,18.00
2022-08-05T20:09:54.697Z,17.80
2022-08-05T20:13:58.251Z,17.60
2022-08-05T20:17:36.514Z,17.50
2022-08-05T20:21:18.932Z,17.30
2022-08-05T20:25:03.338Z,17.20
2022-08-05T20:28:48.550Z,17.10
2022-08-05T20:32:30.640Z,17.00
2022-08-05T20:36:16.267Z,16.80
2022-08-05T20:39:59.774Z,16.70
2022-08-05T20:43:59.851Z,16.60
2022-08-05T20:47:43.473Z,16.60
2022-08-05T20:51:28.535Z,16.50
2022-08-05T20:55:56.841Z,16.40
2022-08-05T20:59:18.980Z,16.30
2022-08-05T21:03:07.337Z,16.20
2022-08-05T21:06:50.010Z,16.10
2022-08-05T21:10:35.656Z,16.10
2022-08-05T21:14:19.218Z,16.00
2022-08-05T21:18:01.936Z,15.90
2022-08-05T21:21:50.864Z,15.90
2022-08-05T21:25:34.314Z,15.80
2022-08-05T21:29:16.717Z,15.70
2022-08-05T21:32:58.725Z,15.60
2022-08-05T21:36:42.315Z,15.60
2022-08-05T21:40:25.268Z,15.50
2022-08-05T21:44:07.093Z,15.40
2022-08-05T21:47:56.594Z,15.40
2022-08-05T21:52:15.810Z,15.30
2022-08-05T21:56:01.668Z,15.20
2022-08-05T22:00:03.009Z,15.10
2022-08-05T22:03:48.814Z,15.00
2022-08-05T22:07:54.155Z,14.90
2022-08-05T22:11:36.855Z,14.80
2022-08-05T22:16:00.638Z,14.70
2022-08-05T22:20:01.036Z,14.70
2022-08-05T22:24:01.075Z,14.60
2022-08-05T22:28:05.035Z,14.50
2022-08-05T22:31:46.397Z,14.40
2022-08-05T22:35:47.951Z,14.30
2022-08-05T22:39:33.984Z,14.20
2022-08-05T22:43:15.968Z,14.20
2022-08-05T22:47:29.841Z,14.10
2022-08-05T22:51:20.306Z,14.10
2022-08-05T22:55:19.331Z,14.00
2022-08-05T22:59:42.510Z,13.90
2022-08-05T23:03:05.044Z,13.90
2022-08-05T23:06:47.852Z,13.90
2022-08-05T23:10:30.018Z,13.80
2022-08-05T23:14:13.018Z,13.80
2022-08-05T23:18:01.601Z,13.70
2022-08-05T23:21:48.307Z,13.70
2022-08-05T23:25:53.412Z,13.70
2022-08-05T23:29:34.516Z,13.60
2022-08-05T23:33:25.806Z,13.60
2022-08-05T23:37:18.762Z,13.60
2022-08-05T23:41:00.565Z,13.50
2022-08-05T23:44:44.287Z,13.40
2022-08-05T23:48:26.418Z,13.40
2022-08-05T23:52:27.502Z,13.30
2022-08-05T23:56:10.094Z,13.20
